»·PEaware :: N3891R KLAX-KSNA

N3891R :: KLAX-KSNA

FLIGHT INFORMATION

Flight Status: Arrived
Operator: Privately registered:
United States
More flights under this callsign
Pilot: Markus B. (22479)
Aircraft: CESSNA 172 SKYHAWK
(C172)
More flights by this aircraft type
Origin: KLAX Los Angeles Intl
United States
Destination: KSNA John Wayne-Orange Co
United States
More flights between these airports :: More routes between these airports
Route: SLI8 SLI
File this flight plan on PilotEdge
Remarks:
Altitude:
(Current/Filed)
4,000ft
Speed:
(Current/Filed)
120kts
Departed: 20-Jan-19 03:10 PM
Arrived: 20-Jan-19 03:51 PM
Distance/Time
Traveled:
31nm/0:40
Distance/Time
To Go:
Arrived

Flight Plot

Page will automatically refresh every two minutes.

Flight plan parsing failed; only flown route is shown


Map Options




Map Legend


Flown Route
Filed Route
Departure Airport
Arrival Airport
Navaid (VOR, NDB)
Fix

Horizontal Profiles

Position Reports

Time Latitude Longitude Heading Altitude Ground
Speed
20-Jan-19 14:25 33.945845 -118.404549 82 129ft 0kts
20-Jan-19 14:26 33.945845 -118.404549 82 129ft 0kts
20-Jan-19 14:27 33.945845 -118.404549 82 129ft 0kts
20-Jan-19 14:28 33.945845 -118.404549 82 129ft 0kts
20-Jan-19 14:33 33.945845 -118.404549 82 129ft 0kts
20-Jan-19 14:34 33.945845 -118.404549 82 129ft 0kts
20-Jan-19 14:35 33.945845 -118.404549 82 129ft 0kts
20-Jan-19 14:36 33.945845 -118.404549 82 129ft 0kts
20-Jan-19 14:37 33.945845 -118.404549 82 129ft 0kts
20-Jan-19 14:38 33.945845 -118.404549 82 129ft 0kts
20-Jan-19 14:39 33.945845 -118.404549 82 129ft 0kts
20-Jan-19 14:40 33.945845 -118.404549 82 129ft 0kts
20-Jan-19 14:41 33.945845 -118.404549 82 129ft 0kts
20-Jan-19 14:42 33.945845 -118.404549 82 129ft 0kts
20-Jan-19 14:43 33.945845 -118.404549 82 129ft 0kts
20-Jan-19 14:50 33.945845 -118.404549 82 129ft 0kts
20-Jan-19 14:51 33.945845 -118.404549 82 129ft 0kts
20-Jan-19 14:52 33.945845 -118.404549 82 129ft 0kts
20-Jan-19 14:53 33.945845 -118.404549 82 129ft 0kts
20-Jan-19 14:54 33.945845 -118.404549 82 129ft 0kts
20-Jan-19 14:55 33.945845 -118.404549 82 129ft 0kts
20-Jan-19 14:56 33.945845 -118.404549 82 129ft 0kts
20-Jan-19 14:57 33.945845 -118.404549 82 129ft 0kts
20-Jan-19 14:58 33.945845 -118.404549 82 129ft 0kts
20-Jan-19 14:59 33.945845 -118.404549 82 129ft 0kts
20-Jan-19 15:00 33.945845 -118.404549 82 129ft 0kts
20-Jan-19 15:01 33.945845 -118.404549 82 129ft 0kts
20-Jan-19 15:02 33.945873 -118.404732 260 129ft 14kts
20-Jan-19 15:03 33.948053 -118.403643 84 129ft 17kts
20-Jan-19 15:04 33.948719 -118.400613 322 129ft 0kts
20-Jan-19 15:05 33.948762 -118.400654 321 129ft 0kts
20-Jan-19 15:06 33.948762 -118.400654 322 129ft 0kts
20-Jan-19 15:07 33.948895 -118.400821 303 129ft 10kts
20-Jan-19 15:08 33.949196 -118.401434 316 129ft 0kts
20-Jan-19 15:09 33.949408 -118.410165 264 244ft 79kts
20-Jan-19 15:10 33.945928 -118.439046 263 1076ft 99kts
20-Jan-19 15:11 33.942423 -118.474210 263 1795ft 106kts
20-Jan-19 15:12 33.933494 -118.506208 198 2485ft 106kts
20-Jan-19 15:13 33.904360 -118.502741 172 3184ft 104kts
20-Jan-19 15:14 33.875481 -118.497613 172 3755ft 114kts
20-Jan-19 15:15 33.845855 -118.480283 132 3700ft 123kts
20-Jan-19 15:16 33.823399 -118.449631 131 3701ft 119kts
20-Jan-19 15:17 33.801360 -118.419450 131 3701ft 119kts
20-Jan-19 15:18 33.780306 -118.390521 131 3939ft 104kts
20-Jan-19 15:19 33.759419 -118.361755 131 3930ft 117kts
20-Jan-19 15:20 33.736143 -118.334243 165 3927ft 118kts
20-Jan-19 15:21 33.727884 -118.298214 95 3925ft 118kts
20-Jan-19 15:22 33.740254 -118.261987 74 3929ft 119kts
20-Jan-19 15:24 33.748593 -118.223320 76 3929ft 119kts
20-Jan-19 15:25 33.756648 -118.184769 76 3929ft 119kts
20-Jan-19 15:26 33.764737 -118.146136 76 3929ft 119kts
20-Jan-19 15:27 33.772753 -118.107789 76 3929ft 119kts
20-Jan-19 15:28 33.780749 -118.069477 76 3929ft 119kts
20-Jan-19 15:29 33.792764 -118.032827 64 3929ft 119kts
20-Jan-19 15:30 33.806994 -117.997398 64 3929ft 119kts
20-Jan-19 15:31 33.821264 -117.961962 64 3929ft 119kts
20-Jan-19 15:32 33.835540 -117.926430 65 3929ft 119kts
20-Jan-19 15:33 33.848961 -117.890130 67 3929ft 119kts
20-Jan-19 15:34 33.862062 -117.853506 66 3929ft 119kts
20-Jan-19 15:35 33.875387 -117.817080 65 3928ft 119kts
20-Jan-19 15:36 33.889103 -117.780737 65 3927ft 119kts
20-Jan-19 15:37 33.903174 -117.744564 64 3926ft 119kts
20-Jan-19 15:38 33.919356 -117.710037 29 3915ft 119kts
20-Jan-19 15:39 33.948906 -117.691646 29 3865ft 123kts
20-Jan-19 15:40 33.965376 -117.713481 230 3463ft 132kts
20-Jan-19 15:40 33.937650 -117.716978 174 3465ft 118kts
20-Jan-19 15:42 33.901071 -117.726774 206 3404ft 125kts
20-Jan-19 15:43 33.869180 -117.743057 198 3296ft 123kts
20-Jan-19 15:44 33.839523 -117.761113 214 3344ft 119kts
20-Jan-19 15:44 33.816368 -117.779751 210 3343ft 119kts
20-Jan-19 15:46 33.779602 -117.804745 205 2504ft 119kts
20-Jan-19 15:46 33.756091 -117.818287 209 1583ft 120kts
20-Jan-19 15:47 33.728967 -117.835735 206 1131ft 96kts
20-Jan-19 15:48 33.704387 -117.850772 208 687ft 101kts
20-Jan-19 15:49 33.685469 -117.862685 208 160ft 78kts
20-Jan-19 15:50 33.672523 -117.870936 204 60ft 29kts

Navigation Log

Ident Type
Flight plan parsing failed, navigation log unavailable